Time;durP1;ratioP1;P1;durP2;ratioP2;P2;SDS_P1;SDS_P2;PMS_P1;PMS_P2;Temp;Humidity;BMP_temperature;BMP_pressure;BME280_temperature;BME280_humidity;BME280_pressure;Samples;Min_cycle;Max_cycle;Signal;HPM_P1;HPM_P2
2022/11/12 00:01:19;;;;;;;119.30;66.78;;;;;;;13.99;79.37;102970.00;4873994;29;20051;-82
2022/11/12 00:03:51;;;;;;;131.25;70.35;;;;;;;14.26;79.48;103009.22;4872951;29;20060;-83
2022/11/12 00:06:20;;;;;;;134.13;70.88;;;;;;;13.86;79.09;102934.41;4878170;29;20616;-82
2022/11/12 00:08:53;;;;;;;130.93;67.78;;;;;;;14.17;79.57;102983.09;4876798;29;20168;-81
2022/11/12 00:11:24;;;;;;;123.22;67.07;;;;;;;14.23;79.17;102983.56;4894079;29;20056;-83
2022/11/12 00:14:00;;;;;;;123.63;67.93;;;;;;;14.16;79.24;102979.59;4874921;29;21048;-80
2022/11/12 00:16:26;;;;;;;127.72;66.53;;;;;;;14.31;79.19;102994.56;4875188;29;20135;-82
2022/11/12 00:18:53;;;;;;;124.35;66.32;;;;;;;13.70;79.12;102904.34;4896695;29;20266;-83
2022/11/12 00:21:45;;;;;;;110.07;60.55;;;;;;;14.30;78.95;102992.88;4874027;29;20052;-81
2022/11/12 00:24:16;;;;;;;123.03;68.13;;;;;;;14.25;79.05;102997.69;4863456;29;20366;-81
2022/11/12 00:26:53;;;;;;;116.30;63.30;;;;;;;14.19;78.96;102991.88;4894177;29;20060;-83
2022/11/12 00:29:19;;;;;;;111.40;60.83;;;;;;;14.03;78.72;102970.66;4884126;29;20060;-83
2022/11/12 00:31:52;;;;;;;101.68;60.10;;;;;;;13.58;78.30;102895.31;4878610;29;20056;-81
2022/11/12 00:34:19;;;;;;;114.13;58.33;;;;;;;14.13;77.76;102986.94;4883548;29;20060;-82
2022/11/12 00:36:47;;;;;;;107.13;60.28;;;;;;;14.11;77.97;102982.56;4879682;29;20048;-80
2022/11/12 00:39:13;;;;;;;106.93;55.53;;;;;;;14.03;77.21;102952.84;4882719;29;20056;-81
2022/11/12 00:41:40;;;;;;;103.75;58.47;;;;;;;14.15;77.03;102991.25;4881641;29;20078;-83
2022/11/12 00:44:07;;;;;;;98.75;56.20;;;;;;;14.03;76.68;102979.53;4881489;29;20192;-82
2022/11/12 00:46:34;;;;;;;99.03;53.78;;;;;;;14.11;76.06;102979.88;4885059;29;20063;-80
2022/11/12 00:49:01;;;;;;;93.13;54.45;;;;;;;14.12;76.35;102986.06;4880681;29;20056;-83
2022/11/12 00:51:33;;;;;;;95.60;58.10;;;;;;;13.98;76.61;102967.44;4883898;29;20599;-81
2022/11/12 00:54:03;;;;;;;98.13;54.65;;;;;;;13.77;76.83;102945.69;4875169;29;20059;-81
2022/11/12 00:56:30;;;;;;;101.18;55.17;;;;;;;13.97;76.64;102976.41;4885774;29;20066;-81
2022/11/12 00:59:04;;;;;;;92.40;56.08;;;;;;;13.46;76.86;102902.28;4879684;29;20210;-81
2022/11/12 01:01:31;;;;;;;94.45;54.28;;;;;;;13.12;77.02;102843.09;4873162;29;20948;-81
2022/11/12 01:04:01;;;;;;;92.65;54.53;;;;;;;13.81;77.14;102960.53;4904473;29;20175;-81
2022/11/12 01:06:30;;;;;;;102.32;55.33;;;;;;;13.77;77.04;102954.53;4883758;29;20044;-81
2022/11/12 01:09:02;;;;;;;95.05;54.50;;;;;;;13.67;76.93;102942.75;4882630;29;20058;-82
2022/11/12 01:11:33;;;;;;;92.30;52.03;;;;;;;13.51;77.49;102934.88;4894128;29;20060;-83
2022/11/12 01:14:05;;;;;;;89.13;51.33;;;;;;;13.29;77.14;102884.72;4882495;29;20087;-79
2022/11/12 01:16:36;;;;;;;;;;;;;;;13.54;76.88;102957.84;4894779;29;20064;-80
2022/11/12 01:19:09;;;;;;;94.32;52.70;;;;;;;13.21;77.86;102903.00;4880203;29;19926;-83
2022/11/12 01:21:40;;;;;;;100.65;54.65;;;;;;;12.82;77.39;102853.91;4881947;29;20421;-81
2022/11/12 01:24:15;;;;;;;100.57;52.08;;;;;;;13.39;77.77;102957.00;4897331;29;20060;-81
2022/11/12 01:26:41;;;;;;;90.47;51.53;;;;;;;13.26;77.44;102935.56;4880749;29;20564;-80
2022/11/12 01:29:11;;;;;;;92.47;51.17;;;;;;;13.30;77.40;102945.13;4896346;29;20354;-83
2022/11/12 01:31:41;;;;;;;91.57;51.83;;;;;;;13.32;77.41;102937.84;4895103;29;20064;-83
2022/11/12 01:34:08;;;;;;;93.90;52.20;;;;;;;13.35;77.25;102948.34;4885331;29;20362;-79
2022/11/12 01:36:38;;;;;;;91.65;50.90;;;;;;;13.34;77.37;102946.63;4884666;29;20066;-79
2022/11/12 01:39:10;;;;;;;90.45;51.00;;;;;;;13.15;77.40;102919.38;4883034;29;20060;-81
2022/11/12 01:41:40;;;;;;;91.70;50.90;;;;;;;13.13;77.30;102910.59;4883173;29;20442;-81
2022/11/12 01:44:19;;;;;;;87.72;49.25;;;;;;;13.29;77.64;102948.72;4877760;29;20056;-81
2022/11/12 01:47:05;;;;;;;85.47;49.88;;;;;;;13.24;77.60;102946.31;4879663;29;20083;-81
2022/11/12 01:49:45;;;;;;;80.85;47.78;;;;;;;13.08;77.34;102928.72;4880305;29;20139;-81
2022/11/12 01:52:25;;;;;;;77.07;45.15;;;;;;;12.79;77.08;102875.38;4881940;29;20683;-81
2022/11/12 01:55:02;;;;;;;79.57;43.58;;;;;;;13.12;77.05;102927.56;4881635;29;20055;-82
2022/11/12 01:57:44;;;;;;;82.75;47.60;;;;;;;13.25;77.02;102948.06;4878705;29;20139;-81
2022/11/12 02:00:13;;;;;;;76.65;45.90;;;;;;;13.07;76.85;102905.66;4877153;29;20147;-81
2022/11/12 02:02:45;;;;;;;76.82;42.83;;;;;;;13.30;76.12;102937.13;4882010;29;20579;-78
2022/11/12 02:05:15;;;;;;;69.40;43.70;;;;;;;13.13;76.20;102907.94;4878582;29;20052;-82
2022/11/12 02:07:45;;;;;;;74.22;44.45;;;;;;;13.07;75.62;102882.53;4878764;29;20087;-80
2022/11/12 02:10:14;;;;;;;75.88;44.92;;;;;;;13.04;75.86;102891.56;4879120;29;20052;-82
2022/11/12 02:15:30;;;;;;;74.20;42.53;;;;;;;13.55;74.23;102927.53;4880340;29;20324;-78
2022/11/12 02:17:56;;;;;;;77.97;43.00;;;;;;;13.50;74.48;102932.31;4877307;29;20048;-80
2022/11/12 02:20:26;;;;;;;76.47;44.05;;;;;;;13.29;74.77;102913.19;4877643;29;20585;-81
2022/11/12 02:22:58;;;;;;;74.47;43.10;;;;;;;13.44;74.93;102937.06;4881172;29;20056;-81
2022/11/12 02:25:28;;;;;;;82.72;42.05;;;;;;;13.13;75.29;102881.25;4878066;29;20578;-80
2022/11/12 02:27:57;;;;;;;74.50;43.88;;;;;;;13.30;75.40;102913.13;4877331;29;20163;-81
2022/11/12 02:30:53;;;;;;;75.38;44.75;;;;;;;13.25;74.88;102899.16;4880853;29;20418;-81
2022/11/12 02:33:21;;;;;;;76.43;42.60;;;;;;;13.37;74.80;102902.88;4861357;29;20062;-81
2022/11/12 02:35:48;;;;;;;77.68;43.97;;;;;;;13.37;74.98;102897.53;4882071;29;20055;-82
2022/11/12 02:38:15;;;;;;;81.22;43.83;;;;;;;13.38;75.08;102905.47;4878701;29;20235;-82
2022/11/12 02:40:43;;;;;;;80.18;45.17;;;;;;;13.12;75.30;102864.41;4911995;28;20167;-80
2022/11/12 02:43:09;;;;;;;77.95;44.83;;;;;;;13.07;75.01;102855.00;4877992;29;20608;-84
2022/11/12 02:45:36;;;;;;;82.07;45.90;;;;;;;12.95;75.51;102844.16;4878904;29;20048;-80
2022/11/12 02:48:03;;;;;;;81.28;46.50;;;;;;;13.21;76.26;102887.00;4913224;28;20115;-81
2022/11/12 02:50:29;;;;;;;81.47;45.97;;;;;;;13.19;75.99;102878.22;4880359;29;20224;-80
2022/11/12 02:52:56;;;;;;;89.03;49.20;;;;;;;13.17;76.48;102869.47;4878944;29;20480;-80
2022/11/12 02:55:27;;;;;;;82.40;45.65;;;;;;;13.29;76.23;102889.19;4881541;29;20048;-82
2022/11/12 02:57:58;;;;;;;94.78;51.25;;;;;;;12.32;76.42;102716.69;4875783;29;20080;-80
2022/11/12 03:00:27;;;;;;;95.85;50.47;;;;;;;13.25;76.72;102870.69;4876784;29;20067;-83
2022/11/12 03:03:00;;;;;;;97.05;51.05;;;;;;;13.21;76.82;102860.31;4876588;29;20070;-80
2022/11/12 03:05:28;;;;;;;94.40;52.33;;;;;;;13.00;77.73;102825.19;4879133;29;20533;-80
2022/11/12 03:08:06;;;;;;;96.40;52.88;;;;;;;13.34;77.10;102865.75;4860388;29;20365;-81
2022/11/12 03:10:37;;;;;;;97.00;51.28;;;;;;;13.37;77.13;102853.03;4856428;29;20063;-83
2022/11/12 03:13:08;;;;;;;93.00;53.58;;;;;;;13.13;77.20;102803.94;4862293;29;20499;-81
2022/11/12 03:15:36;;;;;;;97.57;51.33;;;;;;;13.37;77.64;102866.38;4876467;29;20095;-79
2022/11/12 03:18:06;;;;;;;98.70;53.17;;;;;;;12.73;77.44;102750.53;4876953;29;20506;-81
2022/11/12 03:20:33;;;;;;;94.15;52.05;;;;;;;13.38;77.73;102868.13;4857617;29;20064;-81
2022/11/12 03:23:05;;;;;;;98.63;51.72;;;;;;;13.28;77.76;102851.00;4860414;29;20139;-82
2022/11/12 03:25:36;;;;;;;92.60;51.85;;;;;;;13.26;77.70;102844.88;4861538;29;20398;-82
2022/11/12 03:28:11;;;;;;;82.18;47.30;;;;;;;13.16;77.29;102822.41;4863122;29;20865;-82
2022/11/12 03:30:41;;;;;;;91.63;49.88;;;;;;;12.94;76.96;102794.47;4875731;29;20070;-80
2022/11/12 03:33:12;;;;;;;88.03;50.50;;;;;;;13.26;77.48;102847.53;4860226;29;20392;-83
2022/11/12 03:35:42;;;;;;;93.97;48.90;;;;;;;13.19;77.74;102846.22;4877751;29;20059;-81
2022/11/12 03:38:11;;;;;;;87.68;45.70;;;;;;;13.20;76.94;102843.47;4879324;29;20162;-81
2022/11/12 03:40:38;;;;;;;88.32;45.88;;;;;;;13.28;76.51;102856.34;4874922;29;20521;-83
2022/11/12 03:43:05;;;;;;;92.03;46.78;;;;;;;12.79;76.11;102785.66;4857894;29;20522;-81
2022/11/12 03:45:32;;;;;;;83.07;45.05;;;;;;;12.86;75.33;102790.56;4878444;29;20085;-78
2022/11/12 03:47:59;;;;;;;76.18;42.78;;;;;;;13.28;75.25;102863.44;4874453;29;20060;-81
2022/11/12 03:50:31;;;;;;;78.75;42.75;;;;;;;12.47;75.17;102726.38;4881097;29;20048;-81
2022/11/12 03:52:59;;;;;;;74.55;42.83;;;;;;;13.16;75.46;102867.75;4877686;29;20463;-79
2022/11/12 03:55:28;;;;;;;63.58;37.63;;;;;;;12.97;75.39;102826.25;4877014;29;20052;-80
2022/11/12 03:57:56;;;;;;;71.82;40.67;;;;;;;13.09;74.64;102856.63;4880674;29;20048;-81
2022/11/12 04:00:26;;;;;;;77.97;41.45;;;;;;;12.70;75.21;102794.22;4879354;29;20158;-79
2022/11/12 04:02:53;;;;;;;70.40;39.67;;;;;;;13.13;74.97;102867.94;4879073;29;20106;-80
2022/11/12 04:08:36;;;;;;;60.97;36.10;;;;;;;13.04;74.05;102846.25;4880692;29;20522;-81
2022/11/12 04:11:06;;;;;;;66.50;37.13;;;;;;;13.11;74.20;102859.19;4887555;29;20070;-81
2022/11/12 04:13:34;;;;;;;65.65;38.35;;;;;;;12.75;74.53;102804.59;4883614;29;20151;-79
2022/11/12 04:21:50;;;;;;;63.15;36.70;;;;;;;12.73;75.17;102806.50;4870332;29;20060;-80
2022/11/12 04:27:19;;;;;;;63.65;37.08;;;;;;;13.05;75.05;102853.28;4879429;29;20056;-80
2022/11/12 04:32:38;;;;;;;61.58;36.08;;;;;;;12.59;75.31;102768.22;4879432;29;20059;-80
2022/11/12 04:35:07;;;;;;;67.05;36.63;;;;;;;13.00;74.42;102820.72;4884450;29;20328;-80
2022/11/12 04:37:44;;;;;;;63.38;36.28;;;;;;;12.56;74.53;102741.78;4885566;29;20561;-80
2022/11/12 04:45:57;;;;;;;61.60;36.50;;;;;;;13.04;75.17;102810.72;4883697;29;20139;-81
2022/11/12 04:48:26;;;;;;;62.33;36.47;;;;;;;13.03;75.04;102807.22;4879734;29;20052;-79
2022/11/12 04:51:00;;;;;;;57.90;35.22;;;;;;;12.69;75.21;102747.19;4880879;29;20051;-79
2022/11/12 04:53:29;;;;;;;62.63;36.45;;;;;;;13.11;75.51;102819.19;4878062;29;20052;-80
2022/11/12 04:55:57;;;;;;;64.07;37.00;;;;;;;13.05;75.56;102809.75;4880391;29;20056;-80
2022/11/12 04:58:24;;;;;;;57.38;33.33;;;;;;;13.14;75.41;102827.84;4876496;29;20044;-81
2022/11/12 05:00:51;;;;;;;66.32;36.58;;;;;;;12.95;74.98;102793.50;4878276;29;20547;-80
2022/11/12 05:03:18;;;;;;;58.97;34.88;;;;;;;12.79;74.93;102764.31;4874897;29;20060;-81
2022/11/12 05:05:44;;;;;;;56.20;35.25;;;;;;;12.98;75.16;102795.97;4882520;29;20481;-80
2022/11/12 05:08:14;;;;;;;54.60;33.72;;;;;;;13.08;75.07;102822.88;4877815;29;20410;-80
2022/11/12 05:10:40;;;;;;;61.58;34.58;;;;;;;13.10;75.35;102821.00;4873632;29;20159;-79
2022/11/12 05:13:07;;;;;;;65.43;36.10;;;;;;;13.26;73.81;102826.19;4863598;29;20071;-80
2022/11/12 05:15:34;;;;;;;59.95;35.40;;;;;;;12.81;73.78;102741.06;4863480;29;20074;-80
2022/11/12 05:18:00;;;;;;;62.10;34.30;;;;;;;13.10;73.26;102798.81;4878194;29;20055;-81
2022/11/12 05:20:27;;;;;;;52.45;33.45;;;;;;;12.99;73.81;102780.84;4875455;29;20342;-79
2022/11/12 05:22:56;;;;;;;58.75;32.38;;;;;;;12.84;73.50;102745.38;4843882;29;20049;-79
2022/11/12 05:25:34;;;;;;;54.05;33.53;;;;;;;13.08;73.69;102806.03;4858970;29;20239;-81
2022/11/12 05:28:01;;;;;;;49.05;31.27;;;;;;;13.01;73.85;102798.44;4859941;29;20545;-79
2022/11/12 05:30:28;;;;;;;57.08;33.72;;;;;;;12.90;73.83;102784.94;4874583;29;20682;-80
2022/11/12 05:32:54;;;;;;;55.20;31.98;;;;;;;12.93;73.89;102790.06;4862808;29;20055;-80
2022/11/12 05:35:25;;;;;;;50.58;32.03;;;;;;;13.03;74.09;102793.88;4876202;29;20060;-81
2022/11/12 05:37:52;;;;;;;52.95;31.17;;;;;;;12.83;74.15;102760.47;4864579;29;20380;-79
2022/11/12 05:41:08;;;;;;;47.20;29.27;;;;;;;12.82;73.24;102744.59;4869123;29;20064;-81
2022/11/12 05:43:44;;;;;;;49.05;29.38;;;;;;;12.97;73.59;102778.25;4862033;29;20434;-79
2022/11/12 05:46:17;;;;;;;48.47;31.75;;;;;;;12.92;73.42;102769.72;4861430;29;20056;-81
2022/11/12 05:48:44;;;;;;;52.40;31.05;;;;;;;13.03;73.28;102788.56;4859968;29;20044;-80
2022/11/12 05:51:19;;;;;;;48.00;29.85;;;;;;;12.96;73.45;102773.91;4855314;29;20053;-82
2022/11/12 05:53:49;;;;;;;50.58;29.27;;;;;;;13.09;72.61;102789.94;4841076;29;20630;-80
2022/11/12 05:56:15;;;;;;;47.15;28.45;;;;;;;13.14;72.26;102805.66;4857609;29;20496;-80
2022/11/12 05:58:42;;;;;;;44.40;27.75;;;;;;;12.97;71.64;102767.59;4857333;29;20099;-81
2022/11/12 06:01:12;;;;;;;45.92;27.85;;;;;;;13.12;71.67;102794.22;4865069;29;20099;-82
2022/11/12 06:03:40;;;;;;;45.00;27.95;;;;;;;12.96;71.82;102776.56;4847705;29;20453;-80
2022/11/12 06:06:07;;;;;;;46.25;27.88;;;;;;;12.92;71.50;102791.03;4859298;29;20062;-81
2022/11/12 06:08:34;;;;;;;44.10;25.35;;;;;;;13.02;71.36;102786.81;4840787;29;20056;-81
2022/11/12 06:11:00;;;;;;;47.28;27.38;;;;;;;12.74;71.52;102750.44;4844350;29;20052;-82
2022/11/12 06:13:28;;;;;;;41.70;26.50;;;;;;;12.97;71.66;102794.25;4860312;29;20054;-80
2022/11/12 06:15:55;;;;;;;44.63;28.00;;;;;;;12.68;71.91;102755.28;4860073;29;20545;-81
2022/11/12 06:18:25;;;;;;;44.97;27.00;;;;;;;12.97;72.77;102806.75;4862700;29;20066;-79
2022/11/12 06:23:38;;;;;;;45.38;26.73;;;;;;;12.88;71.61;102789.50;4869549;29;20155;-79
2022/11/12 06:26:04;;;;;;;43.13;25.98;;;;;;;12.94;72.36;102806.94;4857742;29;20062;-81
2022/11/12 06:28:33;;;;;;;44.15;25.02;;;;;;;12.59;71.70;102749.56;4859404;29;20258;-83
2022/11/12 06:31:00;;;;;;;45.25;25.48;;;;;;;12.81;72.28;102766.88;4858794;29;20529;-81
2022/11/12 06:33:26;;;;;;;40.58;26.17;;;;;;;12.88;72.10;102784.19;4860890;29;20261;-81
2022/11/12 06:36:05;;;;;;;45.05;25.75;;;;;;;12.93;72.50;102792.75;4860314;29;20582;-82
2022/11/12 06:38:38;;;;;;;37.30;23.58;;;;;;;13.03;72.62;102798.34;4864558;29;20812;-80
2022/11/12 06:41:07;;;;;;;40.10;25.20;;;;;;;13.03;71.13;102788.56;4854947;29;20056;-81
2022/11/12 06:43:34;;;;;;;44.35;25.15;;;;;;;13.12;71.26;102776.41;4858717;29;20151;-81
2022/11/12 06:46:05;;;;;;;41.38;25.20;;;;;;;12.71;71.08;102702.63;4856274;29;20514;-81
2022/11/12 06:48:32;;;;;;;38.20;25.17;;;;;;;12.86;71.47;102740.78;4857788;29;20538;-81
2022/11/12 06:51:11;;;;;;;42.00;25.85;;;;;;;13.17;71.09;102768.97;4875245;29;20622;-80
2022/11/12 06:53:37;;;;;;;42.35;25.20;;;;;;;13.30;71.02;102778.84;4859466;29;20531;-82
2022/11/12 06:56:06;;;;;;;40.60;25.02;;;;;;;13.27;70.89;102779.91;4870341;29;20048;-81
2022/11/12 06:58:33;;;;;;;40.42;23.45;;;;;;;13.27;71.08;102779.91;4875814;29;20373;-81
2022/11/12 07:01:09;;;;;;;35.25;22.35;;;;;;;13.22;71.24;102782.00;4872383;29;20502;-79
2022/11/12 07:03:43;;;;;;;35.03;22.42;;;;;;;13.34;70.88;102789.22;4840009;29;20153;-80
2022/11/12 07:06:17;;;;;;;33.08;21.98;;;;;;;13.30;70.94;102781.53;4854509;29;20267;-79
2022/11/12 07:08:49;;;;;;;36.67;21.67;;;;;;;13.23;70.44;102752.56;4843436;29;20426;-80
2022/11/12 07:11:23;;;;;;;36.15;22.23;;;;;;;13.22;70.55;102772.19;4843314;29;20588;-79
2022/11/12 07:13:49;;;;;;;31.42;20.75;;;;;;;13.28;71.22;102786.09;4857980;29;20477;-79
2022/11/12 07:16:19;;;;;;;31.17;21.60;;;;;;;13.26;71.44;102788.84;4858829;29;20066;-80
2022/11/12 07:18:46;;;;;;;36.30;21.90;;;;;;;13.27;71.80;102779.91;4842979;29;20139;-79
2022/11/12 07:21:18;;;;;;;34.70;21.67;;;;;;;13.23;71.90;102773.06;4839966;29;20064;-79
2022/11/12 07:23:46;;;;;;;32.92;21.00;;;;;;;13.27;71.96;102779.91;4853742;29;20051;-79
2022/11/12 07:26:20;;;;;;;31.30;20.48;;;;;;;13.31;71.95;102776.09;4855602;29;20509;-79
2022/11/12 07:28:49;;;;;;;33.65;19.63;;;;;;;13.36;70.82;102775.78;4857359;29;20127;-79
2022/11/12 07:31:17;;;;;;;32.88;19.33;;;;;;;13.50;70.62;102775.75;4855984;29;20196;-81
2022/11/12 07:33:47;;;;;;;28.80;19.48;;;;;;;13.24;70.59;102732.09;4857528;29;20228;-81
2022/11/12 07:36:16;;;;;;;27.98;19.33;;;;;;;13.42;70.79;102757.56;4860746;29;20056;-80
2022/11/12 07:38:44;;;;;;;26.50;18.75;;;;;;;13.39;70.85;102736.41;4873819;29;20043;-80
2022/11/12 07:41:11;;;;;;;31.83;18.80;;;;;;;13.53;70.65;102758.66;4871488;29;20176;-79
2022/11/12 07:43:39;;;;;;;29.10;19.08;;;;;;;13.52;69.97;102762.28;4845040;29;20742;-79
2022/11/12 07:46:26;;;;;;;30.33;18.10;;;;;;;13.43;69.10;102743.28;4874285;29;20260;-80
2022/11/12 07:48:54;;;;;;;29.30;19.00;;;;;;;13.66;69.82;102764.88;4861837;29;20056;-79
2022/11/12 07:51:23;;;;;;;29.23;19.10;;;;;;;13.70;69.65;102771.72;4861087;29;20495;-82
2022/11/12 07:53:53;;;;;;;25.95;17.67;;;;;;;13.27;70.06;102699.91;4837042;29;20164;-82
2022/11/12 07:56:28;;;;;;;25.15;17.63;;;;;;;13.64;69.27;102761.44;4850544;29;20058;-84
2022/11/12 07:58:57;;;;;;;26.38;16.65;;;;;;;13.76;69.83;102771.31;4859955;29;20412;-81
2022/11/12 08:01:31;;;;;;;29.38;18.20;;;;;;;13.81;69.61;102773.66;4868167;29;20422;-82
2022/11/12 08:04:04;;;;;;;26.13;17.58;;;;;;;13.78;69.42;102764.03;4846246;29;20430;-81
2022/11/12 08:06:38;;;;;;;27.35;17.77;;;;;;;13.90;69.09;102776.53;4857904;29;20071;-82
2022/11/12 08:09:09;;;;;;;25.42;16.67;;;;;;;13.83;68.72;102745.88;4838215;29;20097;-81
2022/11/12 08:11:36;;;;;;;24.65;16.38;;;;;;;13.73;68.04;102712.78;4846210;29;20056;-80
2022/11/12 08:14:03;;;;;;;24.08;15.45;;;;;;;14.01;68.29;102765.13;4862330;29;20436;-77
2022/11/12 08:16:30;;;;;;;26.73;16.77;;;;;;;13.80;68.35;102730.09;4869061;29;20059;-81
2022/11/12 08:18:57;;;;;;;23.33;15.38;;;;;;;14.02;68.45;102749.97;4838400;29;20283;-81
2022/11/12 08:21:28;;;;;;;25.23;15.80;;;;;;;14.03;68.37;102757.00;4838690;29;20570;-82
2022/11/12 08:23:58;;;;;;;22.10;14.93;;;;;;;13.91;68.60;102724.03;4849063;29;20618;-79
2022/11/12 08:26:25;;;;;;;21.95;15.18;;;;;;;13.98;68.54;102733.31;4862729;29;20423;-83
2022/11/12 08:28:54;;;;;;;18.65;13.85;;;;;;;13.93;68.38;102723.91;4839847;29;20072;-81
2022/11/12 08:31:21;;;;;;;18.20;13.80;;;;;;;14.25;67.86;102743.03;4839482;29;20720;-83
2022/11/12 08:33:49;;;;;;;20.70;13.43;;;;;;;14.23;67.39;102742.28;4838981;29;20547;-81
2022/11/12 08:36:17;;;;;;;18.30;13.45;;;;;;;14.18;67.39;102739.94;4844434;29;20554;-84
2022/11/12 08:38:44;;;;;;;21.30;13.63;;;;;;;14.31;67.48;102745.25;4853656;29;20135;-80
2022/11/12 08:41:16;;;;;;;18.70;12.95;;;;;;;13.88;67.48;102677.03;4856639;29;20060;-81
2022/11/12 08:43:47;;;;;;;18.52;13.02;;;;;;;13.89;67.04;102659.19;4863145;29;20087;-82
2022/11/12 08:46:16;;;;;;;18.10;13.57;;;;;;;14.35;67.02;102733.38;4857836;29;20071;-78
2022/11/12 08:48:43;;;;;;;20.20;13.57;;;;;;;14.42;66.53;102731.13;4862885;29;20087;-78
2022/11/12 08:51:12;;;;;;;17.60;13.35;;;;;;;14.22;65.98;102674.63;4866340;29;20506;-80
2022/11/12 08:53:42;;;;;;;22.40;12.68;;;;;;;14.41;65.90;102716.91;4851818;29;20520;-79
2022/11/12 08:56:12;;;;;;;22.27;13.10;;;;;;;14.62;66.00;102754.63;4852319;29;20057;-82
2022/11/12 08:58:41;;;;;;;16.92;11.77;;;;;;;14.66;64.97;102745.44;4873385;29;20595;-82
2022/11/12 09:01:14;;;;;;;16.13;11.73;;;;;;;14.40;65.25;102701.00;4872012;29;20212;-80
2022/11/12 09:03:48;;;;;;;17.83;12.05;;;;;;;14.76;64.45;102745.63;4849201;29;20076;-81
2022/11/12 09:06:16;;;;;;;16.50;10.70;;;;;;;14.78;64.71;102738.31;4867737;29;20062;-80
2022/11/12 09:08:43;;;;;;;15.10;11.05;;;;;;;14.74;64.03;102715.47;4865791;29;20060;-81
2022/11/12 09:11:13;;;;;;;16.77;11.10;;;;;;;14.91;63.92;102738.31;4854477;29;20291;-82
2022/11/12 09:13:53;;;;;;;14.23;10.68;;;;;;;15.00;63.89;102732.28;4853747;29;20591;-82
2022/11/12 09:16:20;;;;;;;19.23;12.32;;;;;;;14.93;63.83;102721.19;4857812;29;20266;-81
2022/11/12 09:18:47;;;;;;;18.23;11.98;;;;;;;15.02;63.97;102741.03;4848184;29;20048;-80
2022/11/12 09:21:14;;;;;;;17.52;11.77;;;;;;;14.98;64.15;102728.88;4841275;29;20057;-83
2022/11/12 09:23:40;;;;;;;17.00;11.57;;;;;;;14.86;63.76;102700.34;4845666;29;20097;-81
2022/11/12 09:26:10;;;;;;;18.90;12.82;;;;;;;15.10;63.26;102721.75;4867683;29;20103;-80
2022/11/12 09:28:42;;;;;;;18.42;12.02;;;;;;;15.13;63.07;102725.03;4861028;29;20597;-80
2022/11/12 09:31:09;;;;;;;20.67;12.50;;;;;;;15.01;63.04;102707.22;4870006;29;20095;-83
2022/11/12 09:33:36;;;;;;;13.98;10.45;;;;;;;14.97;63.01;102711.09;4856803;29;20056;-83
2022/11/12 09:36:11;;;;;;;19.75;11.90;;;;;;;14.72;63.29;102654.09;4848981;29;20091;-81
2022/11/12 09:38:38;;;;;;;17.58;11.60;;;;;;;15.16;63.03;102711.41;4855060;29;20091;-80
2022/11/12 09:41:22;;;;;;;17.20;10.60;;;;;;;15.12;62.62;102709.97;4845609;29;20079;-82
2022/11/12 09:43:52;;;;;;;15.38;10.70;;;;;;;14.96;63.15;102688.00;4852108;29;20262;-85
2022/11/12 09:46:32;;;;;;;18.50;11.43;;;;;;;15.05;62.91;102706.03;4836621;29;20068;-82
2022/11/12 09:49:13;;;;;;;16.58;11.55;;;;;;;15.15;63.46;102738.31;4844552;29;20227;-81
2022/11/12 09:52:01;;;;;;;15.57;10.00;;;;;;;14.95;62.59;102673.78;4854635;29;20741;-79
2022/11/12 09:54:34;;;;;;;14.85;11.88;;;;;;;15.10;62.58;102695.00;4835145;29;20076;-82
2022/11/12 09:57:01;;;;;;;17.58;11.35;;;;;;;14.73;63.12;102642.44;4854245;29;20112;-82
2022/11/12 09:59:31;;;;;;;23.23;13.13;;;;;;;15.29;63.13;102724.75;4863920;29;20052;-81
2022/11/12 10:02:38;;;;;;;16.08;12.10;;;;;;;15.16;62.63;102708.75;4849317;29;20170;-82
2022/11/12 10:05:22;;;;;;;19.13;12.90;;;;;;;15.24;62.74;102700.13;4856107;29;20159;-80
2022/11/12 10:08:29;;;;;;;19.88;12.60;;;;;;;15.25;62.81;102704.53;4852363;29;20223;-79
2022/11/12 10:11:28;;;;;;;19.02;12.10;;;;;;;15.00;62.91;102668.09;4843048;29;20056;-81
2022/11/12 10:14:16;;;;;;;17.92;13.30;;;;;;;14.94;62.88;102641.78;4838006;29;20207;-79
2022/11/12 10:17:05;;;;;;;20.30;13.55;;;;;;;15.39;63.05;102701.66;4855273;29;20062;-81
2022/11/12 10:19:48;;;;;;;21.48;13.48;;;;;;;15.33;63.13;102706.63;4839429;29;20510;-82
2022/11/12 10:22:31;;;;;;;26.48;15.82;;;;;;;15.36;63.13;102693.88;4838455;29;20079;-81
2022/11/12 10:25:12;;;;;;;20.00;13.23;;;;;;;14.51;63.31;102578.13;4855080;29;20904;-81
2022/11/12 10:27:43;;;;;;;23.83;14.80;;;;;;;14.93;63.58;102640.09;4857387;29;20059;-81
2022/11/12 10:30:21;;;;;;;21.20;15.55;;;;;;;15.30;63.44;102702.38;4851262;29;20060;-81
2022/11/12 10:32:50;;;;;;;21.52;15.20;;;;;;;15.13;63.70;102668.84;4861946;29;20522;-82
2022/11/12 10:35:22;;;;;;;19.42;14.73;;;;;;;15.09;63.80;102669.19;4841563;29;20056;-80
2022/11/12 10:37:50;;;;;;;22.23;15.15;;;;;;;15.28;63.99;102690.06;4854192;29;20068;-79
2022/11/12 10:40:31;;;;;;;22.05;15.38;;;;;;;15.20;63.59;102657.69;4855724;29;20166;-81
2022/11/12 10:43:14;;;;;;;20.85;14.63;;;;;;;15.30;63.64;102691.66;4843058;29;20059;-83
2022/11/12 10:49:22;;;;;;;25.40;16.33;;;;;;;15.41;62.38;102682.81;4865134;29;20518;-81
2022/11/12 10:51:58;;;;;;;23.33;15.35;;;;;;;15.27;63.02;102669.66;4866242;29;20830;-81
2022/11/12 10:54:36;;;;;;;25.63;16.85;;;;;;;15.37;63.16;102667.97;4874529;29;20425;-81
2022/11/12 10:57:25;;;;;;;23.15;15.15;;;;;;;15.49;62.30;102669.69;4878264;29;20520;-81
2022/11/12 11:00:17;;;;;;;23.05;15.30;;;;;;;15.21;62.15;102605.88;4879405;29;20056;-81
2022/11/12 11:02:52;;;;;;;26.30;15.95;;;;;;;15.28;62.21;102640.06;4876920;29;20095;-80
2022/11/12 11:05:26;;;;;;;21.58;15.77;;;;;;;15.32;62.31;102640.72;4871195;29;20059;-82
2022/11/12 11:07:56;;;;;;;24.00;16.02;;;;;;;15.41;62.38;102661.38;4892535;28;20533;-80
2022/11/12 11:10:29;;;;;;;22.40;15.85;;;;;;;15.41;62.11;102653.34;4853039;29;20245;-80
2022/11/12 11:13:25;;;;;;;24.60;15.98;;;;;;;15.45;62.28;102660.19;4861477;29;20044;-82
2022/11/12 11:16:04;;;;;;;24.38;15.90;;;;;;;15.43;61.48;102647.91;4855338;29;20330;-81
2022/11/12 11:18:34;;;;;;;21.52;15.02;;;;;;;15.09;61.55;102578.25;4870198;29;20150;-81
2022/11/12 11:21:20;;;;;;;26.15;16.65;;;;;;;15.55;61.45;102647.78;4874325;29;20058;-80
2022/11/12 11:23:56;;;;;;;22.27;16.45;;;;;;;15.71;61.24;102655.53;4868402;28;20228;-82
2022/11/12 11:26:35;;;;;;;27.55;18.15;;;;;;;15.28;62.06;102599.09;4874573;29;20055;-82
2022/11/12 11:29:31;;;;;;;30.67;19.00;;;;;;;15.47;62.71;102655.56;4848497;29;20052;-81
2022/11/12 11:32:23;;;;;;;28.38;17.92;;;;;;;15.35;62.94;102616.38;4870559;29;20192;-80
2022/11/12 11:35:19;;;;;;;27.98;17.33;;;;;;;15.64;62.53;102650.75;4843857;29;20134;-80
2022/11/12 11:37:52;;;;;;;27.63;16.98;;;;;;;15.62;62.80;102653.53;4840084;29;20133;-82
2022/11/12 11:40:40;;;;;;;24.30;18.10;;;;;;;15.74;61.72;102649.09;4838527;29;20586;-82
2022/11/12 11:43:41;;;;;;;28.42;18.77;;;;;;;15.62;62.65;102633.94;4854617;29;20452;-82
2022/11/12 11:46:30;;;;;;;28.33;18.98;;;;;;;15.32;63.07;102587.19;4847970;29;20088;-82
2022/11/12 11:49:17;;;;;;;27.75;19.48;;;;;;;15.51;63.22;102616.03;4840269;29;20561;-80
2022/11/12 11:51:59;;;;;;;28.45;19.27;;;;;;;15.59;63.55;102621.66;4840492;29;20482;-81
2022/11/12 11:54:36;;;;;;;29.65;19.42;;;;;;;15.55;63.15;102591.56;4866509;29;20044;-80
2022/11/12 11:57:21;;;;;;;29.60;19.48;;;;;;;15.76;62.82;102597.09;4861048;29;20052;-78
2022/11/12 12:00:13;;;;;;;33.83;21.52;;;;;;;15.67;63.10;102589.75;4868659;29;20052;-80
2022/11/12 12:03:03;;;;;;;36.92;23.27;;;;;;;15.69;63.46;102592.31;4863723;29;20511;-82